createdAt,value
2023-05-03T00:00:08.317Z,1.50
2023-05-03T00:02:12.676Z,1.83
2023-05-03T00:04:17.888Z,1.27
2023-05-03T00:06:22.063Z,1.70
2023-05-03T00:08:25.001Z,1.70
2023-05-03T00:10:28.028Z,1.27
2023-05-03T00:12:31.153Z,1.50
2023-05-03T00:14:33.895Z,1.60
2023-05-03T00:16:36.836Z,1.30
2023-05-03T00:18:40.959Z,1.57
2023-05-03T00:20:44.179Z,1.60
2023-05-03T00:22:47.292Z,1.70
2023-05-03T00:24:51.230Z,1.30
2023-05-03T00:26:53.982Z,1.50
2023-05-03T00:28:57.134Z,1.63
2023-05-03T00:31:09.398Z,1.40
2023-05-03T00:33:12.290Z,1.67
2023-05-03T00:35:16.417Z,1.77
2023-05-03T00:37:19.542Z,1.70
2023-05-03T00:39:22.306Z,1.30
2023-05-03T00:41:25.794Z,1.50
2023-05-03T00:43:28.575Z,1.60
2023-05-03T00:45:31.985Z,1.70
2023-05-03T00:47:34.821Z,1.70
2023-05-03T00:49:37.598Z,1.50
2023-05-03T00:51:41.989Z,1.57
2023-05-03T00:53:45.270Z,1.60
2023-05-03T00:55:47.999Z,2.00
2023-05-03T00:57:50.767Z,1.50
2023-05-03T00:59:54.021Z,2.00
2023-05-03T01:01:57.308Z,1.53
2023-05-03T01:04:00.827Z,2.27
2023-05-03T01:06:16.727Z,1.80
2023-05-03T01:08:24.327Z,2.00
2023-05-03T01:10:31.795Z,1.40
2023-05-03T01:12:38.652Z,1.23
2023-05-03T01:14:50.131Z,1.50
2023-05-03T01:16:54.929Z,1.70
2023-05-03T01:19:01.463Z,1.60
2023-05-03T01:21:05.126Z,1.80
2023-05-03T01:23:12.295Z,1.60
2023-05-03T01:25:16.582Z,1.33
2023-05-03T01:27:19.824Z,1.50
2023-05-03T01:29:22.586Z,1.50
2023-05-03T01:31:29.865Z,1.50
2023-05-03T01:33:49.565Z,1.50
2023-05-03T01:35:54.961Z,1.63
2023-05-03T01:37:58.125Z,1.80
2023-05-03T01:40:02.532Z,1.50
2023-05-03T01:42:07.413Z,1.60
2023-05-03T01:44:10.734Z,1.50
2023-05-03T01:46:14.168Z,1.60
2023-05-03T01:48:17.641Z,1.60
2023-05-03T01:50:20.897Z,1.57
2023-05-03T01:52:24.244Z,1.70
2023-05-03T01:54:27.212Z,1.57
2023-05-03T01:56:31.634Z,1.80
2023-05-03T01:58:36.048Z,1.77
2023-05-03T02:00:39.254Z,1.60
2023-05-03T02:02:42.051Z,1.63
2023-05-03T02:04:44.913Z,1.20
2023-05-03T02:06:48.173Z,1.70
2023-05-03T02:08:51.054Z,1.60
2023-05-03T02:10:53.798Z,1.40
2023-05-03T02:12:56.589Z,1.70
2023-05-03T02:15:01.251Z,1.80
2023-05-03T02:17:04.133Z,1.60
2023-05-03T02:19:08.447Z,1.50
2023-05-03T02:21:11.266Z,1.93
2023-05-03T02:23:14.595Z,1.37
2023-05-03T02:25:17.376Z,1.60
2023-05-03T02:27:20.139Z,1.80
2023-05-03T02:29:22.908Z,1.50
2023-05-03T02:31:27.662Z,1.60
2023-05-03T02:33:30.593Z,1.60
2023-05-03T02:35:33.736Z,1.63
2023-05-03T02:37:36.503Z,1.40
2023-05-03T02:39:39.787Z,1.40
2023-05-03T02:41:42.557Z,1.63
2023-05-03T02:43:45.356Z,1.50
2023-05-03T02:45:48.119Z,1.50
2023-05-03T02:47:52.634Z,1.87
2023-05-03T02:49:55.543Z,1.40
2023-05-03T02:51:58.322Z,1.60
2023-05-03T02:54:01.166Z,1.50
2023-05-03T02:56:04.765Z,1.83
2023-05-03T02:58:07.636Z,1.50
2023-05-03T03:00:12.668Z,1.40
2023-05-03T03:02:15.435Z,1.53
2023-05-03T03:04:20.005Z,1.57
2023-05-03T03:06:22.999Z,1.53
2023-05-03T03:08:25.871Z,1.70
2023-05-03T03:10:28.629Z,1.70
2023-05-03T03:12:31.823Z,1.70
2023-05-03T03:14:34.601Z,2.00
2023-05-03T03:16:37.374Z,2.20
2023-05-03T03:18:40.334Z,1.37
2023-05-03T03:20:45.870Z,1.63
2023-05-03T03:22:48.666Z,1.80
2023-05-03T03:24:51.423Z,1.60
2023-05-03T03:26:54.184Z,1.57
2023-05-03T03:28:57.342Z,1.90
2023-05-03T03:31:00.134Z,1.50
2023-05-03T03:33:02.994Z,1.70
2023-05-03T03:35:06.318Z,1.70
2023-05-03T03:37:11.140Z,1.30
2023-05-03T03:39:13.885Z,1.57
2023-05-03T03:41:16.664Z,1.60
2023-05-03T03:43:19.468Z,2.00
2023-05-03T03:45:22.581Z,1.47
2023-05-03T03:47:25.837Z,1.30
2023-05-03T03:49:28.624Z,1.40
2023-05-03T03:51:31.401Z,1.77
2023-05-03T03:53:35.931Z,1.50
2023-05-03T03:55:38.670Z,1.80
2023-05-03T03:57:41.672Z,1.60
2023-05-03T03:59:44.401Z,1.50
2023-05-03T04:01:47.575Z,1.60
2023-05-03T04:03:50.474Z,1.53
2023-05-03T04:05:53.364Z,1.50
2023-05-03T04:07:56.122Z,1.43
2023-05-03T04:10:00.769Z,1.30
2023-05-03T04:12:03.891Z,1.20
2023-05-03T04:14:06.689Z,1.33
2023-05-03T04:16:09.519Z,1.50
2023-05-03T04:18:12.702Z,1.80
2023-05-03T04:20:15.562Z,1.90
2023-05-03T04:22:18.316Z,1.47
2023-05-03T04:24:21.288Z,1.40
2023-05-03T04:26:31.795Z,1.60
2023-05-03T04:28:35.181Z,1.70
2023-05-03T04:30:37.944Z,1.73
2023-05-03T04:32:40.848Z,1.53
2023-05-03T04:34:44.253Z,1.50
2023-05-03T04:36:47.300Z,1.47
2023-05-03T04:38:50.017Z,1.50
2023-05-03T04:40:53.398Z,1.70
2023-05-03T04:42:57.555Z,1.63
2023-05-03T04:45:00.444Z,1.70
2023-05-03T04:47:03.475Z,1.47
2023-05-03T04:49:06.866Z,1.80
2023-05-03T04:51:09.694Z,1.57
2023-05-03T04:53:12.459Z,1.70
2023-05-03T04:55:15.429Z,1.77
2023-05-03T04:57:18.724Z,1.40
2023-05-03T04:59:22.933Z,1.50
2023-05-03T05:01:28.125Z,1.40
2023-05-03T05:03:33.681Z,1.33
2023-05-03T05:05:37.125Z,1.53
2023-05-03T05:07:39.891Z,1.40
2023-05-03T05:09:42.742Z,1.67
2023-05-03T05:11:45.806Z,1.80
2023-05-03T05:13:49.089Z,1.60
2023-05-03T05:15:53.142Z,1.57
2023-05-03T05:17:56.074Z,1.47
2023-05-03T05:19:59.057Z,1.50
2023-05-03T05:22:02.188Z,1.60
2023-05-03T05:24:05.069Z,1.63
2023-05-03T05:26:07.916Z,1.40
2023-05-03T05:28:11.131Z,1.20
2023-05-03T05:30:15.017Z,1.67
2023-05-03T05:32:19.067Z,1.80
2023-05-03T05:34:21.904Z,1.57
2023-05-03T05:36:24.841Z,1.70
2023-05-03T05:38:27.932Z,1.80
2023-05-03T05:40:30.805Z,1.80
2023-05-03T05:42:33.646Z,1.83
2023-05-03T05:44:36.572Z,1.40
2023-05-03T05:46:39.804Z,1.93
2023-05-03T05:48:43.960Z,1.70
2023-05-03T05:50:46.962Z,1.53
2023-05-03T05:52:52.347Z,1.60
2023-05-03T05:54:55.398Z,1.37
2023-05-03T05:56:58.707Z,2.10
2023-05-03T05:59:01.764Z,1.50
2023-05-03T06:01:04.911Z,1.80
2023-05-03T06:03:07.752Z,1.70
2023-05-03T06:05:12.029Z,1.70
2023-05-03T06:07:16.206Z,1.60
2023-05-03T06:09:24.821Z,1.80
2023-05-03T06:11:28.067Z,1.60
2023-05-03T06:13:32.180Z,2.10
2023-05-03T06:15:37.208Z,1.90
2023-05-03T06:17:40.035Z,1.80
2023-05-03T06:19:45.135Z,1.60
2023-05-03T06:21:52.557Z,1.77
2023-05-03T06:23:56.329Z,1.57
2023-05-03T06:25:59.678Z,1.70
2023-05-03T06:28:03.212Z,1.80
2023-05-03T06:30:08.556Z,1.93
2023-05-03T06:32:12.124Z,1.47
2023-05-03T06:34:15.638Z,1.87
2023-05-03T06:36:19.799Z,1.40
2023-05-03T06:38:24.656Z,1.50
2023-05-03T06:40:28.592Z,1.50
2023-05-03T06:42:31.897Z,1.57
2023-05-03T06:44:35.355Z,1.30
2023-05-03T06:46:38.206Z,1.60
2023-05-03T06:48:41.434Z,1.30
2023-05-03T06:50:44.243Z,1.43
2023-05-03T06:52:47.104Z,1.57
2023-05-03T06:54:51.252Z,1.47
2023-05-03T06:56:54.509Z,1.23
2023-05-03T06:58:57.283Z,1.80
2023-05-03T07:01:01.584Z,1.60
2023-05-03T07:03:04.651Z,1.40
2023-05-03T07:05:08.836Z,1.10
2023-05-03T07:07:11.663Z,1.60
2023-05-03T07:09:14.425Z,1.80
2023-05-03T07:11:19.097Z,1.50
2023-05-03T07:13:21.863Z,1.67
2023-05-03T07:15:24.640Z,1.13
2023-05-03T07:17:27.853Z,1.30
2023-05-03T07:19:31.020Z,1.40
2023-05-03T07:21:34.564Z,1.70
2023-05-03T07:23:37.758Z,1.40
2023-05-03T07:25:40.813Z,1.67
2023-05-03T07:27:45.460Z,1.53
2023-05-03T07:29:49.905Z,1.40
2023-05-03T07:31:53.758Z,1.40
2023-05-03T07:33:56.965Z,1.40
2023-05-03T07:35:59.856Z,1.40
2023-05-03T07:38:03.132Z,1.33
2023-05-03T07:40:07.911Z,1.53
2023-05-03T07:42:14.088Z,1.10
2023-05-03T07:44:18.822Z,1.40
2023-05-03T07:46:21.942Z,1.20
2023-05-03T07:48:24.973Z,1.30
2023-05-03T07:50:29.531Z,1.33
2023-05-03T07:52:32.771Z,1.50
2023-05-03T07:54:35.864Z,1.47
2023-05-03T07:56:39.072Z,1.57
2023-05-03T07:58:43.655Z,1.50
2023-05-03T08:00:49.578Z,1.53
2023-05-03T08:02:53.643Z,1.47
2023-05-03T08:04:57.273Z,1.30
2023-05-03T08:07:01.901Z,1.30
2023-05-03T08:09:05.547Z,1.10
2023-05-03T08:11:08.777Z,1.40
2023-05-03T08:13:11.941Z,1.40
2023-05-03T08:15:15.053Z,1.30
2023-05-03T08:17:19.124Z,1.20
2023-05-03T08:19:21.940Z,1.30
2023-05-03T08:21:26.179Z,1.40
2023-05-03T08:23:29.026Z,1.53
2023-05-03T08:25:32.515Z,1.00
2023-05-03T08:27:35.478Z,1.23
2023-05-03T08:29:38.409Z,1.30
2023-05-03T08:31:41.487Z,1.20
2023-05-03T08:33:45.781Z,1.13
2023-05-03T08:35:49.508Z,1.43
2023-05-03T08:37:52.611Z,1.10
2023-05-03T08:39:55.714Z,1.10
2023-05-03T08:42:00.664Z,1.10
2023-05-03T08:44:05.646Z,1.20
2023-05-03T08:46:08.722Z,1.27
2023-05-03T08:48:11.779Z,1.30
2023-05-03T08:50:16.516Z,1.20
2023-05-03T08:52:21.222Z,1.00
2023-05-03T08:54:24.583Z,1.20
2023-05-03T08:56:30.268Z,1.20
2023-05-03T08:58:35.751Z,1.23
2023-05-03T09:00:39.009Z,1.30
2023-05-03T09:02:44.789Z,1.00
2023-05-03T09:04:48.524Z,0.97
2023-05-03T09:06:53.826Z,1.10
2023-05-03T09:08:57.034Z,0.90
2023-05-03T09:10:59.879Z,1.10
2023-05-03T09:13:03.281Z,1.10
2023-05-03T09:15:07.038Z,1.30
2023-05-03T09:17:15.404Z,1.00
2023-05-03T09:19:18.184Z,1.10
2023-05-03T09:21:21.366Z,1.20
2023-05-03T09:23:32.777Z,1.40
2023-05-03T09:25:43.155Z,1.17
2023-05-03T09:27:45.871Z,1.00
2023-05-03T09:29:49.506Z,1.07
2023-05-03T09:31:59.686Z,1.23
2023-05-03T09:34:02.568Z,0.90
2023-05-03T09:36:06.579Z,1.00
2023-05-03T09:38:09.439Z,1.23
2023-05-03T09:40:18.297Z,1.37
2023-05-03T09:42:21.559Z,1.20
2023-05-03T09:44:41.346Z,1.00
2023-05-03T09:47:04.034Z,1.20
2023-05-03T09:49:07.281Z,0.90
2023-05-03T09:51:10.312Z,0.90
2023-05-03T09:53:13.091Z,1.20
2023-05-03T09:55:18.816Z,1.10
2023-05-03T09:57:21.628Z,1.00
2023-05-03T09:59:25.475Z,1.20
2023-05-03T10:01:29.048Z,1.10
2023-05-03T10:03:35.131Z,1.10
2023-05-03T10:05:43.086Z,0.90
2023-05-03T10:07:45.988Z,1.07
2023-05-03T10:09:49.280Z,0.80
2023-05-03T10:11:53.996Z,1.03
2023-05-03T10:13:57.060Z,0.90
2023-05-03T10:16:01.322Z,0.90
2023-05-03T10:18:05.176Z,0.80
2023-05-03T10:20:11.618Z,0.93
2023-05-03T10:22:14.511Z,1.00
2023-05-03T10:24:17.928Z,0.90
2023-05-03T10:26:22.450Z,1.03
2023-05-03T10:28:26.502Z,1.10
2023-05-03T10:30:31.301Z,1.00
2023-05-03T10:32:36.089Z,1.23
2023-05-03T10:34:40.425Z,1.00
2023-05-03T10:36:49.986Z,1.10
2023-05-03T10:38:54.335Z,1.30
2023-05-03T10:40:57.533Z,1.10
2023-05-03T10:43:00.869Z,1.00
2023-05-03T10:45:21.954Z,1.30
2023-05-03T10:47:26.718Z,1.00
2023-05-03T10:49:29.458Z,1.00
2023-05-03T10:51:37.149Z,1.20
2023-05-03T10:53:41.170Z,1.10
2023-05-03T10:56:01.360Z,1.00
2023-05-03T10:58:04.203Z,1.40
2023-05-03T11:00:13.330Z,1.17
2023-05-03T11:02:16.804Z,1.27
2023-05-03T11:04:33.310Z,1.13
2023-05-03T11:06:37.106Z,1.57
2023-05-03T11:08:40.232Z,1.17
2023-05-03T11:10:43.081Z,1.23
2023-05-03T11:12:46.325Z,1.10
2023-05-03T11:14:49.077Z,1.00
2023-05-03T11:16:57.204Z,1.40
2023-05-03T11:19:00.577Z,1.33
2023-05-03T11:21:03.936Z,1.20
2023-05-03T11:23:07.104Z,1.20
2023-05-03T11:25:11.405Z,0.93
2023-05-03T11:27:16.248Z,1.17
2023-05-03T11:29:19.508Z,1.10
2023-05-03T11:31:22.413Z,1.17
2023-05-03T11:33:28.331Z,1.20
2023-05-03T11:35:31.983Z,1.40
2023-05-03T11:37:34.984Z,1.20
2023-05-03T11:39:38.232Z,1.17
2023-05-03T11:41:42.506Z,1.10
2023-05-03T11:43:46.105Z,0.80
2023-05-03T11:45:49.980Z,1.17
2023-05-03T11:47:53.073Z,1.00
2023-05-03T11:49:57.797Z,1.17
2023-05-03T11:52:01.345Z,1.03
2023-05-03T11:54:17.036Z,0.93
2023-05-03T11:56:27.504Z,1.03
2023-05-03T11:58:30.326Z,1.10
2023-05-03T12:00:33.421Z,1.20
2023-05-03T12:02:36.282Z,1.33
2023-05-03T12:04:41.693Z,1.00
2023-05-03T12:06:52.810Z,1.10
2023-05-03T12:08:57.572Z,1.23
2023-05-03T12:11:03.087Z,1.10
2023-05-03T12:13:06.541Z,1.20
2023-05-03T12:15:16.045Z,1.23
2023-05-03T12:17:36.862Z,1.10
2023-05-03T12:19:40.983Z,1.10
2023-05-03T12:22:01.105Z,1.20
2023-05-03T12:24:11.276Z,1.00
2023-05-03T12:26:15.211Z,1.30
2023-05-03T12:28:20.852Z,1.20
2023-05-03T12:30:24.404Z,1.30
2023-05-03T12:32:27.332Z,1.00
2023-05-03T12:34:34.814Z,1.00
2023-05-03T12:36:43.578Z,1.10
2023-05-03T12:40:53.305Z,1.17
2023-05-03T12:42:57.224Z,1.20
2023-05-03T12:45:03.931Z,1.17
2023-05-03T12:47:10.496Z,1.20
2023-05-03T12:49:15.168Z,1.00
2023-05-03T12:51:21.107Z,1.00
2023-05-03T12:53:28.469Z,1.10
2023-05-03T12:55:41.481Z,1.30
2023-05-03T12:57:51.447Z,1.33
2023-05-03T13:00:04.701Z,1.30
2023-05-03T13:06:21.143Z,1.20
2023-05-03T13:08:33.512Z,1.40
2023-05-03T13:10:41.433Z,1.30
2023-05-03T13:12:44.606Z,1.00
2023-05-03T13:14:48.612Z,1.50
2023-05-03T13:16:52.009Z,1.00
2023-05-03T13:18:57.470Z,1.10
2023-05-03T13:21:00.306Z,1.23
2023-05-03T13:23:04.121Z,1.30
2023-05-03T13:25:08.687Z,1.70
2023-05-03T13:27:12.776Z,1.00
2023-05-03T13:29:15.603Z,1.13
2023-05-03T13:31:19.716Z,0.90
2023-05-03T13:33:36.843Z,1.30
2023-05-03T13:35:39.607Z,1.20
2023-05-03T13:37:42.798Z,1.50
2023-05-03T13:39:45.857Z,1.37
2023-05-03T13:41:48.684Z,1.30
2023-05-03T13:43:54.095Z,1.30
2023-05-03T13:46:01.970Z,1.20
2023-05-03T13:48:12.697Z,1.40
2023-05-03T13:50:21.739Z,1.20
2023-05-03T13:52:24.899Z,1.30
2023-05-03T13:54:29.516Z,1.03
2023-05-03T13:56:33.144Z,1.13
2023-05-03T13:58:37.545Z,1.20
2023-05-03T14:00:42.033Z,1.30
2023-05-03T14:02:44.796Z,1.07
2023-05-03T14:04:47.673Z,0.80
2023-05-03T14:06:50.917Z,1.00
2023-05-03T14:08:56.614Z,1.00
2023-05-03T14:11:00.276Z,0.90
2023-05-03T14:13:03.777Z,1.10
2023-05-03T14:15:07.689Z,1.00
2023-05-03T14:17:12.111Z,1.00
2023-05-03T14:19:17.818Z,0.97
2023-05-03T14:21:21.386Z,1.27
2023-05-03T14:23:24.680Z,1.00
2023-05-03T14:25:28.011Z,1.00
2023-05-03T14:27:32.433Z,1.23
2023-05-03T14:29:35.977Z,0.90
2023-05-03T14:31:40.855Z,1.17
2023-05-03T14:33:48.680Z,1.17
2023-05-03T14:35:51.937Z,1.00
2023-05-03T14:37:54.918Z,1.23
2023-05-03T14:39:58.997Z,1.40
2023-05-03T14:42:05.943Z,1.40
2023-05-03T14:44:08.847Z,1.43
2023-05-03T14:46:12.472Z,1.37
2023-05-03T14:48:17.719Z,1.43
2023-05-03T14:50:22.046Z,1.40
2023-05-03T14:52:24.819Z,1.20
2023-05-03T14:54:34.691Z,1.23
2023-05-03T14:56:37.547Z,1.20
2023-05-03T14:58:41.730Z,1.13
2023-05-03T15:00:52.886Z,1.03
2023-05-03T15:02:59.171Z,1.37
2023-05-03T15:05:04.022Z,0.90
2023-05-03T15:07:10.206Z,1.20
2023-05-03T15:09:15.993Z,1.33
2023-05-03T15:11:18.840Z,1.07
2023-05-03T15:13:43.704Z,1.20
2023-05-03T15:15:46.929Z,1.00
2023-05-03T15:17:49.889Z,1.27
2023-05-03T15:19:53.175Z,1.30
2023-05-03T15:21:56.191Z,1.00
2023-05-03T15:24:00.369Z,1.33
2023-05-03T15:26:09.263Z,1.13
2023-05-03T15:28:12.004Z,1.10
2023-05-03T15:30:17.264Z,1.20
2023-05-03T15:32:20.246Z,1.30
2023-05-03T15:34:23.402Z,1.20
2023-05-03T15:36:27.116Z,1.10
2023-05-03T15:38:29.972Z,1.20
2023-05-03T15:40:34.336Z,1.10
2023-05-03T15:42:37.113Z,1.20
2023-05-03T15:44:39.862Z,1.17
2023-05-03T15:46:44.304Z,1.00
2023-05-03T15:48:47.103Z,1.00
2023-05-03T15:50:50.214Z,1.00
2023-05-03T15:52:53.560Z,1.20
2023-05-03T15:54:56.350Z,0.97
2023-05-03T15:57:00.425Z,1.17
2023-05-03T15:59:03.184Z,1.00
2023-05-03T16:01:06.454Z,1.00
2023-05-03T16:03:10.015Z,1.20
2023-05-03T16:05:14.641Z,1.00
2023-05-03T16:07:17.685Z,1.00
2023-05-03T16:09:26.609Z,0.90
2023-05-03T16:11:29.326Z,1.60
2023-05-03T16:13:33.405Z,0.93
2023-05-03T16:15:36.197Z,1.20
2023-05-03T16:17:39.638Z,1.20
2023-05-03T16:19:42.442Z,1.40
2023-05-03T16:21:45.230Z,1.00
2023-05-03T16:23:48.897Z,1.10
2023-05-03T16:25:52.143Z,1.00
2023-05-03T16:27:54.880Z,1.27
2023-05-03T16:29:59.049Z,1.20
2023-05-03T16:32:02.028Z,1.20
2023-05-03T16:34:05.212Z,1.20
2023-05-03T16:36:08.570Z,1.00
2023-05-03T16:38:11.457Z,1.40
2023-05-03T16:40:14.492Z,1.37
2023-05-03T16:42:17.261Z,1.00
2023-05-03T16:44:23.500Z,1.10
2023-05-03T16:46:28.599Z,1.07
2023-05-03T16:48:31.770Z,1.03
2023-05-03T16:50:34.542Z,1.10
2023-05-03T16:52:39.244Z,1.03
2023-05-03T16:54:43.769Z,1.00
2023-05-03T16:56:46.885Z,1.60
2023-05-03T16:58:50.126Z,1.40
2023-05-03T17:00:53.785Z,1.50
2023-05-03T17:02:57.960Z,1.30
2023-05-03T17:05:07.763Z,1.20
2023-05-03T17:07:10.863Z,1.30
2023-05-03T17:09:14.464Z,1.20
2023-05-03T17:11:17.819Z,1.10
2023-05-03T17:13:21.431Z,1.10
2023-05-03T17:15:24.269Z,1.07
2023-05-03T17:17:29.912Z,1.23
2023-05-03T17:19:34.169Z,1.10
2023-05-03T17:21:38.221Z,1.40
2023-05-03T17:23:41.562Z,1.40
2023-05-03T17:25:44.794Z,1.50
2023-05-03T17:27:48.317Z,1.40
2023-05-03T17:29:51.859Z,0.90
2023-05-03T17:31:55.687Z,1.40
2023-05-03T17:33:59.699Z,1.03
2023-05-03T17:36:05.466Z,1.10
2023-05-03T17:38:09.416Z,1.20
2023-05-03T17:40:12.610Z,1.10
2023-05-03T17:42:17.076Z,1.30
2023-05-03T17:44:19.799Z,1.00
2023-05-03T17:46:24.105Z,1.40
2023-05-03T17:48:27.347Z,1.10
2023-05-03T17:50:30.641Z,1.27
2023-05-03T17:52:36.671Z,1.33
2023-05-03T17:54:40.786Z,1.13
2023-05-03T17:56:45.080Z,1.53
2023-05-03T17:58:48.959Z,1.40
2023-05-03T18:00:52.692Z,1.40
2023-05-03T18:02:56.447Z,1.20
2023-05-03T18:05:00.337Z,1.07
2023-05-03T18:07:04.087Z,1.40
2023-05-03T18:09:08.565Z,1.20
2023-05-03T18:11:17.486Z,1.50
2023-05-03T18:13:22.897Z,1.20
2023-05-03T18:15:26.457Z,1.37
2023-05-03T18:17:30.162Z,1.60
2023-05-03T18:19:35.754Z,1.60
2023-05-03T18:21:39.956Z,1.43
2023-05-03T18:23:44.392Z,1.37
2023-05-03T18:25:52.316Z,1.20
2023-05-03T18:27:57.374Z,1.40
2023-05-03T18:30:01.942Z,1.00
2023-05-03T18:32:06.082Z,1.30
2023-05-03T18:34:27.968Z,1.33
2023-05-03T18:36:35.000Z,2.93
2023-05-03T18:38:38.111Z,2.30
2023-05-03T18:40:43.484Z,1.50
2023-05-03T18:42:48.476Z,2.00
2023-05-03T18:44:57.237Z,1.53
2023-05-03T18:47:05.158Z,1.60
2023-05-03T18:49:09.996Z,1.80
2023-05-03T18:51:14.302Z,1.70
2023-05-03T18:53:19.597Z,1.53
2023-05-03T18:55:23.555Z,1.37
2023-05-03T18:57:31.922Z,1.70
2023-05-03T18:59:52.425Z,1.60
2023-05-03T19:02:00.519Z,1.73
2023-05-03T19:04:04.558Z,1.70
2023-05-03T19:06:08.480Z,1.60
2023-05-03T19:08:11.519Z,1.50
2023-05-03T19:10:15.361Z,1.50
2023-05-03T19:12:18.282Z,1.50
2023-05-03T19:14:22.025Z,1.40
2023-05-03T19:16:26.934Z,1.57
2023-05-03T19:18:29.881Z,1.60
2023-05-03T19:20:32.720Z,1.60
2023-05-03T19:22:37.571Z,1.20
2023-05-03T19:24:43.838Z,1.60
2023-05-03T19:26:46.655Z,1.60
2023-05-03T19:28:49.420Z,1.77
2023-05-03T19:30:52.899Z,1.60
2023-05-03T19:32:57.651Z,1.33
2023-05-03T19:35:00.523Z,1.40
2023-05-03T19:37:07.678Z,1.40
2023-05-03T19:39:14.493Z,1.90
2023-05-03T19:41:17.363Z,1.80
2023-05-03T19:43:20.211Z,2.00
2023-05-03T19:45:23.358Z,1.60
2023-05-03T19:47:26.608Z,1.87
2023-05-03T19:49:31.309Z,1.70
2023-05-03T19:51:36.113Z,1.70
2023-05-03T19:53:39.738Z,1.70
2023-05-03T19:55:42.881Z,1.40
2023-05-03T19:57:53.152Z,1.90
2023-05-03T19:59:56.209Z,1.70
2023-05-03T20:01:59.469Z,1.60
2023-05-03T20:04:02.909Z,1.60
2023-05-03T20:06:12.334Z,1.37
2023-05-03T20:08:15.897Z,2.10
2023-05-03T20:10:18.727Z,1.80
2023-05-03T20:12:21.634Z,1.80
2023-05-03T20:14:25.772Z,1.60
2023-05-03T20:16:40.935Z,1.70
2023-05-03T20:18:44.805Z,1.80
2023-05-03T20:20:47.978Z,2.10
2023-05-03T20:22:52.080Z,1.40
2023-05-03T20:24:59.824Z,1.50
2023-05-03T20:27:03.983Z,2.10
2023-05-03T20:29:06.903Z,1.87
2023-05-03T20:31:11.935Z,2.17
2023-05-03T20:33:20.562Z,1.90
2023-05-03T20:35:24.073Z,1.90
2023-05-03T20:37:26.952Z,1.87
2023-05-03T20:39:31.360Z,1.60
2023-05-03T20:41:34.184Z,1.43
2023-05-03T20:43:38.108Z,2.00
2023-05-03T20:45:56.766Z,1.60
2023-05-03T20:48:00.016Z,1.90
2023-05-03T20:50:03.189Z,1.63
2023-05-03T20:52:06.685Z,1.73
2023-05-03T20:54:09.603Z,1.83
2023-05-03T20:56:17.725Z,1.90
2023-05-03T20:58:21.052Z,1.60
2023-05-03T21:00:24.731Z,1.80
2023-05-03T21:02:28.438Z,2.00
2023-05-03T21:04:31.636Z,1.90
2023-05-03T21:06:36.425Z,1.80
2023-05-03T21:08:40.072Z,2.07
2023-05-03T21:10:43.157Z,1.87
2023-05-03T21:12:49.949Z,1.60
2023-05-03T21:14:53.642Z,1.70
2023-05-03T21:16:57.658Z,1.80
2023-05-03T21:19:03.074Z,2.10
2023-05-03T21:21:07.146Z,1.80
2023-05-03T21:23:10.160Z,1.47
2023-05-03T21:25:14.644Z,2.00
2023-05-03T21:27:19.192Z,1.97
2023-05-03T21:29:23.408Z,2.10
2023-05-03T21:31:26.935Z,2.10
2023-05-03T21:33:30.152Z,2.27
2023-05-03T21:35:33.038Z,2.30
2023-05-03T21:37:35.823Z,2.00
2023-05-03T21:39:40.341Z,1.57
2023-05-03T21:41:45.274Z,1.80
2023-05-03T21:43:48.315Z,2.10
2023-05-03T21:45:54.165Z,1.93
2023-05-03T21:47:58.955Z,1.93
2023-05-03T21:50:01.987Z,1.90
2023-05-03T21:52:05.098Z,1.80
2023-05-03T21:54:07.875Z,1.97
2023-05-03T21:56:11.228Z,2.20
2023-05-03T21:58:14.025Z,2.00
2023-05-03T22:00:19.934Z,2.23
2023-05-03T22:02:24.142Z,1.97
2023-05-03T22:04:27.390Z,1.90
2023-05-03T22:06:31.064Z,2.10
2023-05-03T22:08:34.319Z,2.10
2023-05-03T22:10:37.865Z,2.03
2023-05-03T22:12:41.157Z,2.23
2023-05-03T22:14:43.890Z,1.90
2023-05-03T22:16:46.657Z,2.30
2023-05-03T22:18:50.727Z,2.23
2023-05-03T22:20:53.836Z,2.10
2023-05-03T22:22:56.565Z,2.00
2023-05-03T22:25:00.453Z,2.30
2023-05-03T22:27:03.723Z,2.30
2023-05-03T22:29:07.588Z,2.03
2023-05-03T22:31:10.389Z,1.90
2023-05-03T22:33:13.123Z,1.87
2023-05-03T22:35:17.317Z,2.27
2023-05-03T22:37:20.366Z,2.20
2023-05-03T22:39:23.576Z,1.97
2023-05-03T22:41:26.802Z,2.30
2023-05-03T22:43:29.596Z,2.20
2023-05-03T22:45:32.322Z,2.23
2023-05-03T22:47:35.154Z,2.53
2023-05-03T22:49:37.942Z,2.57
2023-05-03T22:51:42.494Z,2.33
2023-05-03T22:53:45.341Z,2.00
2023-05-03T22:55:55.511Z,2.30
2023-05-03T22:57:58.297Z,2.37
2023-05-03T23:00:01.639Z,2.10
2023-05-03T23:02:04.499Z,3.07
2023-05-03T23:04:07.310Z,2.63
2023-05-03T23:06:10.159Z,2.60
2023-05-03T23:08:14.732Z,2.43
2023-05-03T23:10:17.868Z,2.60
2023-05-03T23:12:20.659Z,2.40
2023-05-03T23:14:23.407Z,2.30
2023-05-03T23:16:26.656Z,2.43
2023-05-03T23:18:29.369Z,2.17
2023-05-03T23:20:32.179Z,2.50
2023-05-03T23:22:35.094Z,2.47
2023-05-03T23:24:39.650Z,2.60
2023-05-03T23:26:42.519Z,2.47
2023-05-03T23:28:46.230Z,2.30
2023-05-03T23:30:49.418Z,2.10
2023-05-03T23:32:52.953Z,2.67
2023-05-03T23:34:56.013Z,2.90
2023-05-03T23:36:58.755Z,2.40
2023-05-03T23:39:01.522Z,2.50
2023-05-03T23:41:05.657Z,2.53
2023-05-03T23:43:09.623Z,2.40
2023-05-03T23:45:12.813Z,2.93
2023-05-03T23:47:15.848Z,2.37
2023-05-03T23:49:19.653Z,2.47
2023-05-03T23:51:22.369Z,2.50
2023-05-03T23:53:25.099Z,2.47
2023-05-03T23:55:28.432Z,2.77
2023-05-03T23:57:32.485Z,3.00
2023-05-03T23:59:35.227Z,2.50
